createdAt,value
2018-04-28T00:00:12.504Z,65.65
2018-04-28T00:01:12.353Z,65.74
2018-04-28T00:02:12.532Z,66.32
2018-04-28T00:03:12.306Z,65.84
2018-04-28T00:04:12.327Z,66.13
2018-04-28T00:05:12.260Z,66.32
2018-04-28T00:06:12.342Z,67.08
2018-04-28T00:07:12.218Z,67.18
2018-04-28T00:08:12.252Z,66.41
2018-04-28T00:09:12.171Z,67.08
2018-04-28T00:10:12.267Z,67.18
2018-04-28T00:11:12.130Z,67.18
2018-04-28T00:12:12.177Z,66.76
2018-04-28T00:13:12.085Z,67.08
2018-04-28T00:14:12.194Z,66.89
2018-04-28T00:15:12.038Z,67.63
2018-04-28T00:16:12.103Z,67.34
2018-04-28T00:17:11.995Z,67.47
2018-04-28T00:18:12.016Z,67.91
2018-04-28T00:19:11.951Z,67.91
2018-04-28T00:20:12.031Z,68.58
2018-04-28T00:21:11.904Z,67.43
2018-04-28T00:22:11.940Z,67.43
2018-04-28T00:23:11.860Z,67.63
2018-04-28T00:24:11.953Z,67.63
2018-04-28T00:25:11.815Z,67.82
2018-04-28T00:26:11.866Z,68.49
2018-04-28T00:27:11.762Z,68.39
2018-04-28T00:28:11.880Z,67.82
2018-04-28T00:29:11.723Z,67.72
2018-04-28T00:30:11.795Z,67.72
2018-04-28T00:31:11.686Z,68.01
2018-04-28T00:32:11.805Z,68.68
2018-04-28T00:33:11.638Z,68.39
2018-04-28T00:34:11.716Z,68.68
2018-04-28T00:35:11.600Z,68.68
2018-04-28T00:36:11.628Z,68.39
2018-04-28T00:37:11.548Z,68.58
2018-04-28T00:38:11.641Z,68.87
2018-04-28T00:39:11.504Z,69.06
2018-04-28T00:40:11.554Z,69.06
2018-04-28T00:41:11.457Z,68.87
2018-04-28T00:42:11.568Z,68.58
2018-04-28T00:43:11.413Z,69.35
2018-04-28T00:44:11.479Z,69.06
2018-04-28T00:45:11.363Z,69.06
2018-04-28T00:46:11.491Z,69.70
2018-04-28T00:47:11.323Z,68.87
2018-04-28T00:48:11.405Z,69.60
2018-04-28T00:49:11.282Z,69.54
2018-04-28T00:50:11.421Z,69.50
2018-04-28T00:51:11.241Z,69.73
2018-04-28T00:52:11.333Z,70.07
2018-04-28T00:53:11.190Z,69.89
2018-04-28T00:54:11.244Z,70.36
2018-04-28T00:55:11.144Z,69.70
2018-04-28T00:56:11.262Z,70.17
2018-04-28T00:57:11.102Z,70.17
2018-04-28T00:58:11.170Z,70.36
2018-04-28T00:59:11.055Z,70.36
2018-04-28T01:00:11.182Z,70.40
2018-04-28T01:01:11.009Z,70.56
2018-04-28T01:02:11.094Z,69.98
2018-04-28T01:03:10.966Z,70.75
2018-04-28T01:04:11.108Z,70.56
2018-04-28T01:05:10.920Z,70.75
2018-04-28T01:06:11.025Z,70.56
2018-04-28T01:07:10.876Z,70.56
2018-04-28T01:08:11.037Z,71.13
2018-04-28T01:09:10.832Z,70.65
2018-04-28T01:10:10.946Z,70.56
2018-04-28T01:11:10.785Z,70.65
2018-04-28T01:12:10.859Z,70.65
2018-04-28T01:13:10.742Z,70.75
2018-04-28T01:14:10.870Z,71.13
2018-04-28T01:15:10.698Z,71.32
2018-04-28T01:16:10.784Z,71.13
2018-04-28T01:17:10.653Z,71.51
2018-04-28T01:18:10.799Z,71.42
2018-04-28T01:19:10.604Z,71.13
2018-04-28T01:20:10.701Z,71.32
2018-04-28T01:21:10.561Z,71.80
2018-04-28T01:22:10.723Z,71.42
2018-04-28T01:23:10.515Z,71.42
2018-04-28T01:24:10.636Z,71.51
2018-04-28T01:25:10.472Z,71.22
2018-04-28T01:26:10.547Z,71.51
2018-04-28T01:27:10.425Z,71.13
2018-04-28T01:28:10.558Z,71.13
2018-04-28T01:29:10.379Z,70.94
2018-04-28T01:30:10.472Z,70.94
2018-04-28T01:31:10.335Z,71.61
2018-04-28T01:32:10.483Z,71.42
2018-04-28T01:33:10.289Z,71.03
2018-04-28T01:34:10.397Z,71.61
2018-04-28T01:35:10.245Z,71.51
2018-04-28T01:36:10.412Z,71.03
2018-04-28T01:37:10.201Z,71.61
2018-04-28T01:38:10.322Z,71.51
2018-04-28T01:39:10.158Z,71.42
2018-04-28T01:40:10.234Z,71.38
2018-04-28T01:41:10.105Z,71.32
2018-04-28T01:42:10.247Z,71.00
2018-04-28T01:43:10.062Z,71.32
2018-04-28T01:44:10.162Z,71.03
2018-04-28T01:45:10.016Z,71.09
2018-04-28T01:46:10.171Z,71.03
2018-04-28T01:47:09.971Z,71.57
2018-04-28T01:48:10.089Z,71.03
2018-04-28T01:49:09.925Z,71.22
2018-04-28T01:50:10.097Z,71.22
2018-04-28T01:51:09.883Z,70.90
2018-04-28T01:52:10.024Z,71.61
2018-04-28T01:53:09.838Z,71.09
2018-04-28T01:54:10.027Z,70.94
2018-04-28T01:55:09.793Z,70.75
2018-04-28T01:56:09.936Z,70.61
2018-04-28T01:57:24.693Z,70.61
2018-04-28T01:58:09.861Z,70.56
2018-04-28T01:59:09.698Z,70.56
2018-04-28T02:00:09.882Z,70.52
2018-04-28T02:01:09.653Z,70.90
2018-04-28T02:02:09.671Z,71.47
2018-04-28T02:03:09.609Z,70.61
2018-04-28T02:04:09.684Z,70.81
2018-04-28T02:05:09.564Z,70.52
2018-04-28T02:06:09.596Z,70.52
2018-04-28T02:07:09.516Z,70.71
2018-04-28T02:08:09.610Z,70.81
2018-04-28T02:09:09.470Z,70.61
2018-04-28T02:10:09.529Z,71.00
2018-04-28T02:11:09.426Z,71.00
2018-04-28T02:12:09.435Z,70.81
2018-04-28T02:13:09.380Z,70.71
2018-04-28T02:14:09.450Z,70.52
2018-04-28T02:15:09.335Z,70.52
2018-04-28T02:16:09.360Z,70.71
2018-04-28T02:17:09.292Z,70.61
2018-04-28T02:18:09.374Z,70.81
2018-04-28T02:19:09.246Z,70.81
2018-04-28T02:20:09.289Z,70.71
2018-04-28T02:21:09.191Z,71.09
2018-04-28T02:22:09.302Z,70.61
2018-04-28T02:23:09.152Z,70.52
2018-04-28T02:24:09.213Z,70.71
2018-04-28T02:25:09.106Z,70.04
2018-04-28T02:26:09.123Z,70.61
2018-04-28T02:27:09.064Z,70.52
2018-04-28T02:28:09.139Z,70.04
2018-04-28T02:29:09.013Z,70.71
2018-04-28T02:30:09.044Z,69.95
2018-04-28T02:31:08.972Z,70.14
2018-04-28T02:32:09.063Z,70.04
2018-04-28T02:33:08.922Z,70.81
2018-04-28T02:34:10.000Z,70.71
2018-04-28T02:35:08.878Z,70.71
2018-04-28T02:36:08.988Z,70.52
2018-04-28T02:37:08.833Z,70.61
2018-04-28T02:38:09.927Z,71.00
2018-04-28T02:39:08.788Z,70.71
2018-04-28T02:40:08.812Z,70.42
2018-04-28T02:41:08.741Z,70.71
2018-04-28T02:42:08.826Z,70.71
2018-04-28T02:43:08.695Z,70.04
2018-04-28T02:44:08.740Z,70.14
2018-04-28T02:45:08.649Z,70.14
2018-04-28T02:46:08.752Z,70.52
2018-04-28T02:47:08.604Z,70.71
2018-04-28T02:48:08.664Z,70.71
2018-04-28T02:49:08.548Z,70.90
2018-04-28T02:50:08.637Z,70.71
2018-04-28T02:51:08.513Z,71.28
2018-04-28T02:52:08.590Z,70.61
2018-04-28T02:53:08.465Z,70.61
2018-04-28T02:54:08.603Z,71.28
2018-04-28T02:55:08.419Z,71.28
2018-04-28T02:56:08.513Z,70.90
2018-04-28T02:57:08.376Z,71.09
2018-04-28T02:58:08.426Z,70.61
2018-04-28T02:59:08.329Z,71.09
2018-04-28T03:00:08.441Z,70.81
2018-04-28T03:01:08.283Z,71.19
2018-04-28T03:02:08.353Z,71.28
2018-04-28T03:03:08.237Z,71.00
2018-04-28T03:04:08.365Z,70.61
2018-04-28T03:05:08.194Z,71.19
2018-04-28T03:06:08.279Z,70.90
2018-04-28T03:07:08.144Z,70.61
2018-04-28T03:08:08.292Z,70.90
2018-04-28T03:09:08.098Z,71.09
2018-04-28T03:10:08.207Z,70.52
2018-04-28T03:11:08.051Z,71.19
2018-04-28T03:12:08.117Z,70.71
2018-04-28T03:13:08.009Z,70.52
2018-04-28T03:14:08.131Z,71.47
2018-04-28T03:15:07.958Z,70.81
2018-04-28T03:16:08.043Z,70.90
2018-04-28T03:17:07.918Z,70.90
2018-04-28T03:18:08.056Z,70.81
2018-04-28T03:19:07.870Z,70.90
2018-04-28T03:20:07.969Z,71.09
2018-04-28T03:21:07.823Z,71.09
2018-04-28T03:22:07.979Z,70.81
2018-04-28T03:23:07.780Z,71.00
2018-04-28T03:24:07.891Z,70.52
2018-04-28T03:25:07.731Z,71.09
2018-04-28T03:26:07.804Z,71.09
2018-04-28T03:27:07.688Z,70.52
2018-04-28T03:28:07.817Z,71.19
2018-04-28T03:29:07.643Z,71.28
2018-04-28T03:30:07.730Z,71.00
2018-04-28T03:31:07.595Z,71.28
2018-04-28T03:32:07.743Z,71.00
2018-04-28T03:33:07.552Z,71.19
2018-04-28T03:34:07.654Z,71.19
2018-04-28T03:35:07.506Z,71.00
2018-04-28T03:36:07.659Z,71.00
2018-04-28T03:37:07.467Z,70.90
2018-04-28T03:38:07.579Z,71.47
2018-04-28T03:39:07.412Z,71.47
2018-04-28T03:40:07.491Z,71.19
2018-04-28T03:41:07.363Z,70.90
2018-04-28T03:42:07.505Z,70.90
2018-04-28T03:43:07.324Z,70.61
2018-04-28T03:44:07.417Z,71.47
2018-04-28T03:45:07.275Z,71.67
2018-04-28T03:46:07.430Z,71.47
2018-04-28T03:47:07.227Z,71.57
2018-04-28T03:48:07.345Z,70.90
2018-04-28T03:49:07.181Z,71.19
2018-04-28T03:50:07.355Z,70.90
2018-04-28T03:51:07.139Z,70.90
2018-04-28T03:52:07.178Z,70.52
2018-04-28T03:53:07.095Z,71.06
2018-04-28T03:54:07.182Z,71.44
2018-04-28T03:55:07.046Z,71.47
2018-04-28T03:56:07.194Z,71.09
2018-04-28T03:57:06.998Z,71.15
2018-04-28T03:58:07.106Z,70.96
2018-04-28T03:59:06.952Z,70.90
2018-04-28T04:00:07.122Z,71.06
2018-04-28T04:01:06.906Z,70.58
2018-04-28T04:02:07.035Z,71.06
2018-04-28T04:03:06.863Z,71.57
2018-04-28T04:04:07.039Z,71.44
2018-04-28T04:05:06.824Z,71.47
2018-04-28T04:06:06.957Z,70.90
2018-04-28T04:07:06.769Z,70.96
2018-04-28T04:08:06.868Z,71.06
2018-04-28T04:09:06.723Z,71.44
2018-04-28T04:10:06.894Z,71.53
2018-04-28T04:11:06.676Z,71.25
2018-04-28T04:12:06.794Z,71.15
2018-04-28T04:13:06.635Z,71.25
2018-04-28T04:14:06.807Z,71.06
2018-04-28T04:15:06.589Z,71.53
2018-04-28T04:16:06.617Z,71.53
2018-04-28T04:17:06.536Z,71.25
2018-04-28T04:18:06.634Z,71.15
2018-04-28T04:19:06.535Z,71.44
2018-04-28T04:20:06.544Z,70.96
2018-04-28T04:21:06.444Z,70.77
2018-04-28T04:22:06.460Z,70.87
2018-04-28T04:23:06.397Z,70.77
2018-04-28T04:24:06.469Z,71.06
2018-04-28T04:25:06.341Z,70.96
2018-04-28T04:26:06.381Z,70.96
2018-04-28T04:27:06.305Z,70.96
2018-04-28T04:28:06.398Z,70.48
2018-04-28T04:29:06.258Z,70.67
2018-04-28T04:30:06.308Z,70.10
2018-04-28T04:31:06.212Z,70.01
2018-04-28T04:32:06.319Z,70.96
2018-04-28T04:33:06.164Z,70.77
2018-04-28T04:34:06.212Z,69.91
2018-04-28T04:35:06.121Z,70.48
2018-04-28T04:36:06.144Z,70.39
2018-04-28T04:37:06.073Z,70.58
2018-04-28T04:38:06.165Z,70.67
2018-04-28T04:39:06.028Z,71.44
2018-04-28T04:40:06.088Z,70.48
2018-04-28T04:41:05.981Z,70.58
2018-04-28T04:42:06.083Z,70.48
2018-04-28T04:43:05.934Z,70.48
2018-04-28T04:44:05.994Z,70.39
2018-04-28T04:45:05.888Z,70.87
2018-04-28T04:46:06.010Z,71.15
2018-04-28T04:47:05.841Z,70.77
2018-04-28T04:48:05.920Z,70.67
2018-04-28T04:49:05.793Z,71.53
2018-04-28T04:50:05.833Z,71.44
2018-04-28T04:51:05.748Z,70.87
2018-04-28T04:52:05.866Z,70.77
2018-04-28T04:53:05.703Z,70.58
2018-04-28T04:54:05.756Z,70.58
2018-04-28T04:55:05.658Z,70.20
2018-04-28T04:56:05.779Z,70.87
2018-04-28T04:57:05.610Z,70.77
2018-04-28T04:58:05.682Z,70.71
2018-04-28T04:59:05.585Z,71.47
2018-04-28T05:00:05.604Z,70.58
2018-04-28T05:01:05.518Z,70.48
2018-04-28T05:02:05.609Z,70.58
2018-04-28T05:03:05.472Z,70.58
2018-04-28T05:04:05.520Z,70.10
2018-04-28T05:05:05.431Z,70.48
2018-04-28T05:06:05.535Z,70.52
2018-04-28T05:07:05.376Z,70.48
2018-04-28T05:08:05.469Z,70.77
2018-04-28T05:09:05.329Z,70.14
2018-04-28T05:10:05.461Z,70.20
2018-04-28T05:11:05.287Z,70.42
2018-04-28T05:12:05.376Z,70.81
2018-04-28T05:13:05.241Z,70.58
2018-04-28T05:14:05.394Z,70.52
2018-04-28T05:15:05.190Z,70.48
2018-04-28T05:16:05.296Z,70.52
2018-04-28T05:17:05.145Z,70.87
2018-04-28T05:18:05.210Z,70.96
2018-04-28T05:19:05.120Z,70.81
2018-04-28T05:20:05.223Z,70.10
2018-04-28T05:21:05.052Z,70.52
2018-04-28T05:22:05.134Z,70.10
2018-04-28T05:23:05.004Z,70.61
2018-04-28T05:24:05.150Z,70.58
2018-04-28T05:25:04.961Z,70.81
2018-04-28T05:26:05.063Z,70.04
2018-04-28T05:27:04.913Z,70.61
2018-04-28T05:28:04.971Z,70.71
2018-04-28T05:29:04.874Z,70.90
2018-04-28T05:30:04.986Z,70.61
2018-04-28T05:31:04.823Z,70.52
2018-04-28T05:32:04.897Z,70.81
2018-04-28T05:33:04.772Z,70.29
2018-04-28T05:34:04.909Z,70.23
2018-04-28T05:35:04.727Z,70.61
2018-04-28T05:36:04.843Z,70.58
2018-04-28T05:37:04.679Z,70.04
2018-04-28T05:38:04.839Z,70.61
2018-04-28T05:39:04.638Z,70.42
2018-04-28T05:40:04.748Z,70.52
2018-04-28T05:41:04.587Z,70.61
2018-04-28T05:42:04.660Z,70.61
2018-04-28T05:43:04.540Z,70.81
2018-04-28T05:44:04.674Z,70.52
2018-04-28T05:45:04.498Z,70.23
2018-04-28T05:46:04.585Z,70.14
2018-04-28T05:47:04.447Z,70.52
2018-04-28T05:48:04.537Z,70.14
2018-04-28T05:49:04.400Z,70.52
2018-04-28T05:50:04.526Z,71.28
2018-04-28T05:51:04.356Z,70.90
2018-04-28T05:52:04.526Z,70.61
2018-04-28T05:53:04.308Z,71.00
2018-04-28T05:54:04.454Z,70.23
2018-04-28T05:55:04.267Z,70.61
2018-04-28T05:56:04.350Z,70.42
2018-04-28T05:57:04.219Z,70.04
2018-04-28T05:58:04.365Z,70.61
2018-04-28T05:59:04.169Z,70.42
2018-04-28T06:00:04.276Z,70.14
2018-04-28T06:01:04.123Z,70.23
2018-04-28T06:02:04.292Z,70.42
2018-04-28T06:03:04.076Z,70.52
2018-04-28T06:04:04.201Z,69.76
2018-04-28T06:05:04.030Z,69.47
2018-04-28T06:06:04.114Z,70.04
2018-04-28T06:07:03.985Z,70.33
2018-04-28T06:08:04.127Z,69.95
2018-04-28T06:09:03.937Z,70.23
2018-04-28T06:10:04.038Z,70.90
2018-04-28T06:11:03.893Z,70.33
2018-04-28T06:12:04.058Z,69.95
2018-04-28T06:13:03.846Z,70.33
2018-04-28T06:14:04.019Z,70.14
2018-04-28T06:15:03.799Z,70.14
2018-04-28T06:16:03.978Z,70.42
2018-04-28T06:17:03.754Z,70.27
2018-04-28T06:18:03.892Z,70.23
2018-04-28T06:19:03.706Z,70.61
2018-04-28T06:20:03.924Z,70.94
2018-04-28T06:21:03.664Z,70.75
2018-04-28T06:22:03.813Z,71.03
2018-04-28T06:23:03.619Z,70.81
2018-04-28T06:24:03.728Z,70.75
2018-04-28T06:25:03.565Z,70.56
2018-04-28T06:26:03.813Z,70.56
2018-04-28T06:27:03.519Z,70.46
2018-04-28T06:28:03.655Z,69.50
2018-04-28T06:29:03.481Z,69.47
2018-04-28T06:30:03.568Z,69.98
2018-04-28T06:31:03.432Z,70.17
2018-04-28T06:32:03.478Z,70.46
2018-04-28T06:33:03.386Z,70.84
2018-04-28T06:34:03.389Z,70.56
2018-04-28T06:35:03.342Z,70.56
2018-04-28T06:36:03.402Z,71.13
2018-04-28T06:37:03.291Z,70.07
2018-04-28T06:38:03.316Z,69.98
2018-04-28T06:39:03.246Z,69.70
2018-04-28T06:40:03.329Z,69.79
2018-04-28T06:41:03.204Z,70.46
2018-04-28T06:42:03.237Z,70.94
2018-04-28T06:43:03.162Z,70.84
2018-04-28T06:44:03.254Z,70.65
2018-04-28T06:45:03.110Z,70.07
2018-04-28T06:46:03.172Z,69.89
2018-04-28T06:47:03.064Z,70.36
2018-04-28T06:48:03.076Z,70.56
2018-04-28T06:49:03.035Z,71.03
2018-04-28T06:50:03.086Z,70.65
2018-04-28T06:51:03.069Z,70.36
2018-04-28T06:52:03.002Z,70.56
2018-04-28T06:53:02.931Z,69.98
2018-04-28T06:54:03.016Z,69.70
2018-04-28T06:55:02.881Z,69.98
2018-04-28T06:56:02.902Z,70.07
2018-04-28T06:57:02.837Z,69.98
2018-04-28T06:58:02.916Z,70.36
2018-04-28T06:59:02.789Z,70.17
2018-04-28T07:00:02.856Z,70.36
2018-04-28T07:01:02.743Z,69.60
2018-04-28T07:02:02.766Z,69.60
2018-04-28T07:03:02.698Z,69.60
2018-04-28T07:04:02.677Z,69.98
2018-04-28T07:05:02.683Z,69.60
2018-04-28T07:06:02.627Z,70.84
2018-04-28T07:07:02.696Z,70.65
2018-04-28T07:08:02.583Z,71.13
2018-04-28T07:09:02.607Z,70.27
2018-04-28T07:10:02.538Z,69.60
2018-04-28T07:11:02.631Z,69.70
2018-04-28T07:12:02.491Z,69.50
2018-04-28T07:13:02.533Z,70.27
2018-04-28T07:14:02.453Z,70.65
2018-04-28T07:15:02.424Z,69.70
2018-04-28T07:16:02.413Z,70.07
2018-04-28T07:17:02.459Z,69.50
2018-04-28T07:18:02.359Z,70.46
2018-04-28T07:19:02.374Z,70.46
2018-04-28T07:20:02.378Z,70.27
2018-04-28T07:21:02.327Z,69.25
2018-04-28T07:22:02.299Z,69.15
2018-04-28T07:23:02.245Z,69.82
2018-04-28T07:24:02.309Z,69.54
2018-04-28T07:25:02.197Z,69.54
2018-04-28T07:26:02.222Z,69.82
2018-04-28T07:27:02.281Z,69.35
2018-04-28T07:28:02.249Z,69.15
2018-04-28T07:29:02.107Z,69.64
2018-04-28T07:30:02.150Z,68.68
2018-04-28T07:31:02.060Z,69.25
2018-04-28T07:32:02.060Z,69.35
2018-04-28T07:33:02.018Z,69.25
2018-04-28T07:34:02.085Z,68.87
2018-04-28T07:35:01.971Z,69.15
2018-04-28T07:36:01.979Z,69.06
2018-04-28T07:37:01.929Z,69.35
2018-04-28T07:38:01.998Z,69.15
2018-04-28T07:39:01.881Z,69.15
2018-04-28T07:40:01.906Z,68.77
2018-04-28T07:41:01.839Z,68.77
2018-04-28T07:42:01.920Z,69.25
2018-04-28T07:43:01.796Z,68.58
2018-04-28T07:44:01.837Z,68.96
2018-04-28T07:45:01.744Z,68.39
2018-04-28T07:46:01.741Z,68.71
2018-04-28T07:47:01.705Z,68.90
2018-04-28T07:48:01.758Z,68.90
2018-04-28T07:49:01.656Z,68.80
2018-04-28T07:50:01.668Z,68.90
2018-04-28T07:51:01.616Z,69.00
2018-04-28T07:52:01.686Z,68.80
2018-04-28T07:53:01.566Z,68.62
2018-04-28T07:54:01.609Z,68.23
2018-04-28T07:55:01.564Z,68.90
2018-04-28T07:56:01.609Z,68.33
2018-04-28T07:57:01.476Z,67.85
2018-04-28T07:58:01.521Z,67.85
2018-04-28T07:59:01.436Z,67.66
2018-04-28T08:00:01.436Z,68.04
2018-04-28T08:01:01.388Z,67.76
2018-04-28T08:02:01.445Z,67.27
2018-04-28T08:03:01.346Z,67.56
2018-04-28T08:04:01.325Z,68.04
2018-04-28T08:05:01.297Z,69.09
2018-04-28T08:06:01.372Z,68.04
2018-04-28T08:07:01.286Z,68.23
2018-04-28T08:08:01.283Z,67.56
2018-04-28T08:09:01.210Z,68.52
2018-04-28T08:10:01.298Z,68.52
2018-04-28T08:11:01.174Z,69.09
2018-04-28T08:12:01.208Z,66.61
2018-04-28T08:13:01.124Z,67.08
2018-04-28T08:14:01.125Z,67.47
2018-04-28T08:15:01.078Z,68.07
2018-04-28T08:16:01.136Z,68.65
2018-04-28T08:17:01.034Z,67.11
2018-04-28T08:18:01.045Z,67.69
2018-04-28T08:19:00.992Z,67.69
2018-04-28T08:20:01.060Z,68.46
2018-04-28T08:21:00.949Z,67.11
2018-04-28T08:22:00.974Z,67.31
2018-04-28T08:23:00.912Z,66.54
2018-04-28T08:24:00.985Z,67.31
2018-04-28T08:25:00.857Z,67.60
2018-04-28T08:26:00.898Z,67.31
2018-04-28T08:27:00.816Z,66.48
2018-04-28T08:28:00.809Z,66.58
2018-04-28T08:29:00.768Z,65.71
2018-04-28T08:30:00.826Z,66.38
2018-04-28T08:31:00.725Z,66.29
2018-04-28T08:32:00.737Z,66.19
2018-04-28T08:33:00.682Z,66.77
2018-04-28T08:34:00.750Z,66.58
2018-04-28T08:35:00.637Z,66.00
2018-04-28T08:36:00.664Z,66.09
2018-04-28T08:37:00.651Z,66.09
2018-04-28T08:38:00.676Z,66.38
2018-04-28T08:39:00.550Z,65.52
2018-04-28T08:40:00.609Z,65.62
2018-04-28T08:41:00.510Z,65.81
2018-04-28T08:42:00.496Z,66.19
2018-04-28T08:43:00.465Z,66.19
2018-04-28T08:44:00.516Z,66.09
2018-04-28T08:45:00.422Z,66.48
2018-04-28T08:46:00.426Z,66.67
2018-04-28T08:47:00.379Z,67.38
2018-04-28T08:48:00.439Z,66.42
2018-04-28T08:49:00.335Z,66.32
2018-04-28T08:50:00.352Z,65.36
2018-04-28T08:51:00.364Z,64.69
2018-04-28T08:52:00.368Z,65.17
2018-04-28T08:53:00.319Z,64.02
2018-04-28T08:54:00.275Z,64.12
2018-04-28T08:55:00.206Z,65.26
2018-04-28T08:56:01.213Z,65.46
2018-04-28T08:57:00.169Z,65.59
2018-04-28T08:58:00.202Z,65.20
2018-04-28T08:59:00.124Z,64.72
2018-04-28T09:00:00.215Z,63.92
2018-04-28T09:01:00.083Z,64.92
2018-04-28T09:02:00.130Z,64.25
2018-04-28T09:03:00.040Z,64.82
2018-04-28T09:04:00.038Z,64.43
2018-04-28T09:04:59.993Z,64.53
2018-04-28T09:06:00.051Z,64.63
2018-04-28T09:06:59.955Z,63.57
2018-04-28T09:07:59.962Z,64.15
2018-04-28T09:08:59.911Z,64.34
2018-04-28T09:09:59.977Z,62.62
2018-04-28T09:10:59.872Z,63.86
2018-04-28T09:11:59.885Z,64.25
2018-04-28T09:12:59.834Z,63.86
2018-04-28T09:13:59.907Z,63.96
2018-04-28T09:14:59.787Z,65.11
2018-04-28T09:15:59.818Z,64.89
2018-04-28T09:16:59.745Z,65.68
2018-04-28T09:18:00.755Z,64.15
2018-04-28T09:18:59.703Z,63.76
2018-04-28T09:19:59.744Z,64.05
2018-04-28T09:20:59.661Z,63.48
2018-04-28T09:21:59.756Z,63.96
2018-04-28T09:22:59.623Z,64.43
2018-04-28T09:23:59.667Z,64.12
2018-04-28T09:24:59.580Z,64.89
2018-04-28T09:25:59.616Z,64.69
2018-04-28T09:26:59.539Z,64.40
2018-04-28T09:27:59.591Z,64.69
2018-04-28T09:28:59.497Z,65.08
2018-04-28T09:29:59.502Z,64.69
2018-04-28T09:30:59.453Z,65.36
2018-04-28T09:31:59.518Z,65.26
2018-04-28T09:32:59.505Z,65.55
2018-04-28T09:33:59.429Z,65.46
2018-04-28T09:34:59.374Z,66.51
2018-04-28T09:35:59.442Z,65.55
2018-04-28T09:36:59.331Z,65.49
2018-04-28T09:37:59.353Z,65.75
2018-04-28T09:38:59.286Z,65.65
2018-04-28T09:39:59.411Z,65.20
2018-04-28T09:40:59.244Z,65.39
2018-04-28T09:41:59.291Z,64.12
2018-04-28T09:42:59.201Z,65.17
2018-04-28T09:43:59.191Z,65.49
2018-04-28T09:44:59.163Z,65.30
2018-04-28T09:45:59.208Z,65.49
2018-04-28T09:46:59.119Z,65.39
2018-04-28T09:47:59.123Z,65.68
2018-04-28T09:48:59.109Z,65.30
2018-04-28T09:49:59.132Z,65.14
2018-04-28T09:50:59.039Z,65.52
2018-04-28T09:51:59.014Z,64.09
2018-04-28T09:52:59.152Z,64.47
2018-04-28T09:53:58.972Z,64.18
2018-04-28T09:54:59.071Z,63.12
2018-04-28T09:55:58.931Z,62.62
2018-04-28T09:56:58.907Z,63.09
2018-04-28T09:57:58.889Z,62.62
2018-04-28T09:58:58.934Z,63.29
2018-04-28T09:59:58.849Z,65.11
2018-04-28T10:00:58.901Z,64.05
2018-04-28T10:01:58.805Z,62.90
2018-04-28T10:02:58.813Z,63.19
2018-04-28T10:03:58.764Z,63.57
2018-04-28T10:04:58.826Z,63.09
2018-04-28T10:05:58.769Z,63.29
2018-04-28T10:06:58.740Z,63.86
2018-04-28T10:07:58.680Z,64.05
2018-04-28T10:08:58.752Z,63.19
2018-04-28T10:09:58.650Z,63.29
2018-04-28T10:10:58.665Z,64.05
2018-04-28T10:11:58.599Z,64.05
2018-04-28T10:12:58.679Z,65.52
2018-04-28T10:13:58.558Z,64.66
2018-04-28T10:14:58.590Z,63.42
2018-04-28T10:15:58.520Z,63.99
2018-04-28T10:16:58.604Z,63.99
2018-04-28T10:17:58.481Z,63.70
2018-04-28T10:18:58.516Z,62.45
2018-04-28T10:19:58.434Z,62.93
2018-04-28T10:20:58.531Z,63.32
2018-04-28T10:21:58.398Z,63.12
2018-04-28T10:22:58.440Z,62.93
2018-04-28T10:23:58.353Z,63.25
2018-04-28T10:24:58.353Z,62.45
2018-04-28T10:25:58.313Z,62.65
2018-04-28T10:26:58.368Z,62.84
2018-04-28T10:27:58.272Z,61.30
2018-04-28T10:28:58.277Z,62.16
2018-04-28T10:29:58.231Z,61.69
2018-04-28T10:30:58.341Z,61.69
2018-04-28T10:31:58.194Z,60.92
2018-04-28T10:32:58.205Z,61.94
2018-04-28T10:33:58.152Z,61.56
2018-04-28T10:34:58.221Z,61.85
2018-04-28T10:35:58.109Z,61.98
2018-04-28T10:36:58.130Z,60.22
2018-04-28T10:37:58.069Z,61.56
2018-04-28T10:38:58.145Z,62.55
2018-04-28T10:39:58.030Z,61.98
2018-04-28T10:40:58.055Z,63.22
2018-04-28T10:41:57.988Z,62.45
2018-04-28T10:42:58.070Z,61.49
2018-04-28T10:43:57.938Z,62.55
2018-04-28T10:44:57.982Z,61.49
2018-04-28T10:45:57.906Z,61.49
2018-04-28T10:46:57.996Z,61.21
2018-04-28T10:47:57.862Z,61.49
2018-04-28T10:48:57.909Z,60.63
2018-04-28T10:49:57.827Z,60.53
2018-04-28T10:50:57.818Z,60.35
2018-04-28T10:51:57.783Z,60.44
2018-04-28T10:52:57.838Z,62.39
2018-04-28T10:53:57.830Z,61.33
2018-04-28T10:54:57.745Z,60.78
2018-04-28T10:55:57.701Z,60.91
2018-04-28T10:56:57.759Z,61.87
2018-04-28T10:57:57.662Z,58.92
2018-04-28T10:58:57.670Z,58.83
2018-04-28T10:59:57.620Z,57.68
2018-04-28T11:00:57.689Z,56.43
2018-04-28T11:01:57.579Z,57.93
2018-04-28T11:02:57.605Z,57.55
2018-04-28T11:04:04.780Z,56.01
2018-04-28T11:05:50.561Z,56.78
2018-04-28T11:06:50.475Z,57.17
2018-04-28T11:08:44.947Z,56.62
2018-04-28T11:09:45.953Z,56.59
2018-04-28T11:11:37.813Z,56.59
2018-04-28T11:12:37.712Z,55.53
2018-04-28T11:14:30.648Z,55.63
2018-04-28T11:15:30.572Z,55.73
2018-04-28T11:17:23.508Z,56.81
2018-04-28T11:18:23.416Z,56.23
2018-04-28T11:20:16.354Z,55.49
2018-04-28T11:21:16.268Z,55.49
2018-04-28T11:23:09.201Z,55.98
2018-04-28T11:24:09.112Z,56.20
2018-04-28T11:26:02.051Z,54.49
2018-04-28T11:27:01.970Z,55.48
2018-04-28T11:28:54.903Z,53.39
2018-04-28T11:29:54.821Z,53.09
2018-04-28T11:31:47.756Z,52.61
2018-04-28T11:32:47.710Z,50.47
2018-04-28T11:34:40.603Z,51.31
2018-04-28T11:35:40.524Z,53.11
2018-04-28T11:37:33.550Z,54.75
2018-04-28T11:38:33.433Z,53.28
2018-04-28T11:40:26.505Z,55.66
2018-04-28T11:41:26.312Z,55.18
2018-04-28T11:43:19.465Z,55.63
2018-04-28T11:44:19.267Z,56.40
2018-04-28T11:46:12.311Z,56.04
2018-04-28T11:47:12.225Z,55.76
2018-04-28T11:49:05.166Z,55.66
2018-04-28T11:50:05.147Z,55.98
2018-04-28T11:51:58.123Z,54.58
2018-04-28T11:52:57.935Z,53.62
2018-04-28T11:54:50.872Z,52.27
2018-04-28T11:55:50.849Z,53.23
2018-04-28T11:57:44.031Z,53.21
2018-04-28T11:58:43.943Z,52.92
2018-04-28T12:00:36.885Z,53.59
2018-04-28T12:01:36.800Z,53.66
2018-04-28T12:03:29.750Z,53.83
2018-04-28T12:04:29.658Z,54.60
2018-04-28T12:06:22.597Z,55.20
2018-04-28T12:07:22.506Z,54.56
2018-04-28T12:09:15.457Z,54.97
2018-04-28T12:10:15.362Z,53.02
2018-04-28T12:12:08.297Z,52.42
2018-04-28T12:13:08.215Z,52.42
2018-04-28T12:15:01.150Z,53.76
2018-04-28T12:16:01.077Z,53.25
2018-04-28T12:17:54.007Z,53.54
2018-04-28T12:18:53.916Z,55.37
2018-04-28T12:20:46.857Z,56.43
2018-04-28T12:21:46.769Z,54.89
2018-04-28T12:23:39.712Z,56.11
2018-04-28T12:24:39.621Z,55.05
2018-04-28T12:26:32.573Z,56.46
2018-04-28T12:27:32.474Z,56.46
2018-04-28T12:29:25.421Z,55.32
2018-04-28T12:30:25.341Z,55.89
2018-04-28T12:32:18.273Z,55.34
2018-04-28T12:33:18.178Z,56.01
2018-04-28T12:35:11.124Z,55.34
2018-04-28T12:36:11.045Z,56.52
2018-04-28T12:38:03.974Z,55.66
2018-04-28T12:39:03.886Z,54.60
2018-04-28T12:40:56.828Z,55.08
2018-04-28T12:41:56.753Z,53.54
2018-04-28T12:43:49.681Z,54.60
2018-04-28T12:44:49.598Z,54.43
2018-04-28T12:46:42.533Z,55.01
2018-04-28T12:47:42.487Z,54.53
2018-04-28T12:49:35.389Z,53.64
2018-04-28T12:50:35.385Z,53.16
2018-04-28T12:52:28.245Z,53.92
2018-04-28T12:53:28.156Z,54.02
2018-04-28T12:55:21.093Z,53.76
2018-04-28T12:56:21.009Z,54.82
2018-04-28T12:58:13.954Z,52.29
2018-04-28T12:59:13.888Z,53.64
2018-04-28T13:01:06.905Z,54.02
2018-04-28T13:02:06.816Z,54.05
2018-04-28T13:03:59.756Z,53.45
2018-04-28T13:04:59.670Z,54.24
2018-04-28T13:06:52.607Z,53.57
2018-04-28T13:07:52.523Z,53.86
2018-04-28T13:09:45.459Z,52.99
2018-04-28T13:10:45.372Z,51.72
2018-04-28T13:12:38.314Z,53.06
2018-04-28T13:13:38.227Z,53.25
2018-04-28T13:15:31.212Z,55.11
2018-04-28T13:16:31.180Z,53.76
2018-04-28T13:18:24.122Z,53.09
2018-04-28T13:19:24.034Z,54.82
2018-04-28T13:21:16.976Z,53.50
2018-04-28T13:22:16.887Z,53.59
2018-04-28T13:24:10.031Z,53.50
2018-04-28T13:25:09.840Z,52.34
2018-04-28T13:27:03.048Z,51.35
2018-04-28T13:28:02.797Z,51.55
2018-04-28T13:29:55.947Z,52.20
2018-04-28T13:30:55.756Z,53.16
2018-04-28T13:32:48.801Z,53.38
2018-04-28T13:33:48.713Z,53.28
2018-04-28T13:35:41.662Z,52.34
2018-04-28T13:36:41.563Z,53.11
2018-04-28T13:38:34.502Z,50.63
2018-04-28T13:39:34.415Z,49.74